sensor_id;sensor_type;location;lat;lon;timestamp;pressure;altitude;pressure_sealevel;temperature;humidity
14612;BME280;7392;52.078;11.650;2023-02-18T00:00:31;101096.91;;;5.63;86.82
14612;BME280;7392;52.078;11.650;2023-02-18T00:02:59;101103.06;;;5.62;87.19
14612;BME280;7392;52.078;11.650;2023-02-18T00:05:27;101100.38;;;5.60;87.45
14612;BME280;7392;52.078;11.650;2023-02-18T00:07:56;101109.97;;;5.57;87.58
14612;BME280;7392;52.078;11.650;2023-02-18T00:10:24;101111.63;;;5.55;87.89
14612;BME280;7392;52.078;11.650;2023-02-18T00:12:51;101114.22;;;5.52;88.13
14612;BME280;7392;52.078;11.650;2023-02-18T00:15:19;101121.22;;;5.51;88.46
14612;BME280;7392;52.078;11.650;2023-02-18T00:17:47;101116.78;;;5.49;88.46
14612;BME280;7392;52.078;11.650;2023-02-18T00:20:14;101122.06;;;5.49;88.55
14612;BME280;7392;52.078;11.650;2023-02-18T00:22:42;101122.84;;;5.46;88.64
14612;BME280;7392;52.078;11.650;2023-02-18T00:25:11;101117.53;;;5.44;88.73
14612;BME280;7392;52.078;11.650;2023-02-18T00:27:38;101110.44;;;5.40;88.86
14612;BME280;7392;52.078;11.650;2023-02-18T00:30:07;101126.19;;;5.39;88.85
14612;BME280;7392;52.078;11.650;2023-02-18T00:32:35;101116.50;;;5.36;88.84
14612;BME280;7392;52.078;11.650;2023-02-18T00:35:03;101120.81;;;5.34;89.00
14612;BME280;7392;52.078;11.650;2023-02-18T00:37:30;101111.13;;;5.33;89.25
14612;BME280;7392;52.078;11.650;2023-02-18T00:40:00;101100.59;;;5.33;88.98
14612;BME280;7392;52.078;11.650;2023-02-18T00:42:30;101093.53;;;5.32;88.86
14612;BME280;7392;52.078;11.650;2023-02-18T00:44:57;101096.13;;;5.31;89.06
14612;BME280;7392;52.078;11.650;2023-02-18T00:47:25;101083.84;;;5.30;89.20
14612;BME280;7392;52.078;11.650;2023-02-18T00:49:53;101094.28;;;5.27;89.52
14612;BME280;7392;52.078;11.650;2023-02-18T00:52:20;101088.09;;;5.24;88.96
14612;BME280;7392;52.078;11.650;2023-02-18T00:54:48;101082.75;;;5.21;89.36
14612;BME280;7392;52.078;11.650;2023-02-18T00:57:16;101083.59;;;5.20;89.75
14612;BME280;7392;52.078;11.650;2023-02-18T00:59:45;101096.66;;;5.17;90.03
14612;BME280;7392;52.078;11.650;2023-02-18T01:02:12;101100.16;;;5.16;90.02
14612;BME280;7392;52.078;11.650;2023-02-18T01:04:41;101093.06;;;5.14;90.19
14612;BME280;7392;52.078;11.650;2023-02-18T01:07:10;101082.44;;;5.11;89.60
14612;BME280;7392;52.078;11.650;2023-02-18T01:09:38;101091.22;;;5.10;90.15
14612;BME280;7392;52.078;11.650;2023-02-18T01:12:06;101092.00;;;5.07;90.18
14612;BME280;7392;52.078;11.650;2023-02-18T01:14:33;101098.16;;;5.06;90.16
14612;BME280;7392;52.078;11.650;2023-02-18T01:17:02;101095.47;;;5.04;90.15
14612;BME280;7392;52.078;11.650;2023-02-18T01:19:30;101097.19;;;5.02;90.18
14612;BME280;7392;52.078;11.650;2023-02-18T01:21:58;101108.59;;;5.03;90.48
14612;BME280;7392;52.078;11.650;2023-02-18T01:24:26;101099.88;;;5.04;90.12
14612;BME280;7392;52.078;11.650;2023-02-18T01:26:54;101096.28;;;5.02;89.97
14612;BME280;7392;52.078;11.650;2023-02-18T01:29:21;101101.53;;;5.02;89.82
14612;BME280;7392;52.078;11.650;2023-02-18T01:31:49;101094.47;;;4.99;90.28
14612;BME280;7392;52.078;11.650;2023-02-18T01:34:19;101105.00;;;4.99;90.30
14612;BME280;7392;52.078;11.650;2023-02-18T01:36:49;101097.91;;;4.97;90.81
14612;BME280;7392;52.078;11.650;2023-02-18T01:39:16;101108.38;;;4.95;90.52
14612;BME280;7392;52.078;11.650;2023-02-18T01:41:44;101120.56;;;4.92;90.63
14612;BME280;7392;52.078;11.650;2023-02-18T01:44:16;101109.03;;;4.86;90.57
14612;BME280;7392;52.078;11.650;2023-02-18T01:46:44;101105.34;;;4.80;90.68
14612;BME280;7392;52.078;11.650;2023-02-18T01:49:16;101121.88;;;4.74;91.35
14612;BME280;7392;52.078;11.650;2023-02-18T01:51:49;101124.34;;;4.68;91.95
14612;BME280;7392;52.078;11.650;2023-02-18T01:54:21;101125.00;;;4.61;92.35
14612;BME280;7392;52.078;11.650;2023-02-18T01:56:54;101129.19;;;4.54;92.58
14612;BME280;7392;52.078;11.650;2023-02-18T01:59:28;101111.47;;;4.47;93.11
14612;BME280;7392;52.078;11.650;2023-02-18T02:01:57;101111.31;;;4.42;93.06
14612;BME280;7392;52.078;11.650;2023-02-18T02:04:28;101127.00;;;4.38;93.71
14612;BME280;7392;52.078;11.650;2023-02-18T02:06:57;101123.38;;;4.34;94.33
14612;BME280;7392;52.078;11.650;2023-02-18T02:09:27;101118.94;;;4.33;94.17
14612;BME280;7392;52.078;11.650;2023-02-18T02:12:19;101128.53;;;4.31;94.82
14612;BME280;7392;52.078;11.650;2023-02-18T02:15:12;101123.28;;;4.31;94.88
14612;BME280;7392;52.078;11.650;2023-02-18T02:17:49;101116.22;;;4.30;95.47
14612;BME280;7392;52.078;11.650;2023-02-18T02:20:35;101117.97;;;4.29;95.77
14612;BME280;7392;52.078;11.650;2023-02-18T02:23:31;101112.75;;;4.31;96.16
14612;BME280;7392;52.078;11.650;2023-02-18T02:29:40;101095.38;;;4.36;96.26
14612;BME280;7392;52.078;11.650;2023-02-18T02:32:30;101104.19;;;4.38;96.71
14612;BME280;7392;52.078;11.650;2023-02-18T02:35:05;101099.91;;;4.42;96.97
14612;BME280;7392;52.078;11.650;2023-02-18T02:37:41;101091.19;;;4.43;97.05
14612;BME280;7392;52.078;11.650;2023-02-18T02:40:19;101079.84;;;4.45;96.83
14612;BME280;7392;52.078;11.650;2023-02-18T02:43:02;101089.53;;;4.46;96.74
14612;BME280;7392;52.078;11.650;2023-02-18T02:45:43;101089.56;;;4.48;97.08
14612;BME280;7392;52.078;11.650;2023-02-18T02:48:25;101084.25;;;4.46;97.21
14612;BME280;7392;52.078;11.650;2023-02-18T02:51:03;101075.50;;;4.46;97.25
14612;BME280;7392;52.078;11.650;2023-02-18T02:53:34;101079.78;;;4.44;97.58
14612;BME280;7392;52.078;11.650;2023-02-18T02:56:03;101081.59;;;4.45;97.52
14612;BME280;7392;52.078;11.650;2023-02-18T02:58:31;101070.19;;;4.44;97.65
14612;BME280;7392;52.078;11.650;2023-02-18T03:01:23;101071.03;;;4.43;97.85
14612;BME280;7392;52.078;11.650;2023-02-18T03:04:12;101075.41;;;4.43;97.84
14612;BME280;7392;52.078;11.650;2023-02-18T03:07:02;101074.56;;;4.45;98.09
14612;BME280;7392;52.078;11.650;2023-02-18T03:09:43;101072.88;;;4.46;98.14
14612;BME280;7392;52.078;11.650;2023-02-18T03:12:19;101077.22;;;4.45;98.39
14612;BME280;7392;52.078;11.650;2023-02-18T03:14:58;101071.94;;;4.45;98.49
14612;BME280;7392;52.078;11.650;2023-02-18T03:17:30;101081.72;;;4.49;98.44
14612;BME280;7392;52.078;11.650;2023-02-18T03:20:05;101076.53;;;4.53;98.75
14612;BME280;7392;52.078;11.650;2023-02-18T03:22:38;101074.91;;;4.58;98.15
14612;BME280;7392;52.078;11.650;2023-02-18T03:25:09;101061.00;;;4.62;98.33
14612;BME280;7392;52.078;11.650;2023-02-18T03:27:41;101067.28;;;4.67;97.85
14612;BME280;7392;52.078;11.650;2023-02-18T03:30:15;101062.13;;;4.70;98.04
14612;BME280;7392;52.078;11.650;2023-02-18T03:32:45;101063.97;;;4.74;97.22
14612;BME280;7392;52.078;11.650;2023-02-18T03:35:16;101064.06;;;4.77;97.13
14612;BME280;7392;52.078;11.650;2023-02-18T03:37:49;101052.69;;;4.80;97.22
14612;BME280;7392;52.078;11.650;2023-02-18T03:40:21;101054.53;;;4.82;96.91
14612;BME280;7392;52.078;11.650;2023-02-18T03:42:49;101056.28;;;4.82;96.55
14612;BME280;7392;52.078;11.650;2023-02-18T03:45:16;101049.31;;;4.84;96.47
14612;BME280;7392;52.078;11.650;2023-02-18T03:47:44;101058.91;;;4.82;96.62
14612;BME280;7392;52.078;11.650;2023-02-18T03:50:14;101059.84;;;4.84;96.55
14612;BME280;7392;52.078;11.650;2023-02-18T03:52:42;101064.19;;;4.82;96.73
14612;BME280;7392;52.078;11.650;2023-02-18T03:55:11;101064.22;;;4.83;97.03
14612;BME280;7392;52.078;11.650;2023-02-18T03:57:39;101054.63;;;4.85;96.75
14612;BME280;7392;52.078;11.650;2023-02-18T04:00:08;101049.34;;;4.85;97.15
14612;BME280;7392;52.078;11.650;2023-02-18T04:02:40;101038.88;;;4.87;97.16
14612;BME280;7392;52.078;11.650;2023-02-18T04:05:08;101033.66;;;4.89;97.01
14612;BME280;7392;52.078;11.650;2023-02-18T04:07:36;101033.66;;;4.90;97.28
14612;BME280;7392;52.078;11.650;2023-02-18T04:10:04;101038.97;;;4.92;97.40
14612;BME280;7392;52.078;11.650;2023-02-18T04:12:35;101039.94;;;4.94;97.71
14612;BME280;7392;52.078;11.650;2023-02-18T04:15:03;101043.44;;;4.94;97.50
14612;BME280;7392;52.078;11.650;2023-02-18T04:17:32;101040.84;;;4.96;97.70
14612;BME280;7392;52.078;11.650;2023-02-18T04:19:59;101038.25;;;4.97;97.89
14612;BME280;7392;52.078;11.650;2023-02-18T04:22:27;101030.41;;;4.99;98.00
14612;BME280;7392;52.078;11.650;2023-02-18T04:24:55;101034.84;;;5.01;98.27
14612;BME280;7392;52.078;11.650;2023-02-18T04:27:22;101038.44;;;5.05;98.35
14612;BME280;7392;52.078;11.650;2023-02-18T04:29:52;101021.84;;;5.08;98.71
14612;BME280;7392;52.078;11.650;2023-02-18T04:32:19;101032.41;;;5.11;98.48
14612;BME280;7392;52.078;11.650;2023-02-18T04:34:47;101020.22;;;5.13;99.05
14612;BME280;7392;52.078;11.650;2023-02-18T04:37:15;101031.63;;;5.13;99.07
14612;BME280;7392;52.078;11.650;2023-02-18T04:39:42;101028.16;;;5.16;99.17
14612;BME280;7392;52.078;11.650;2023-02-18T04:42:10;101030.88;;;5.19;99.54
14612;BME280;7392;52.078;11.650;2023-02-18T04:44:38;101026.50;;;5.19;99.54
14612;BME280;7392;52.078;11.650;2023-02-18T04:47:07;101028.31;;;5.22;100.00
14612;BME280;7392;52.078;11.650;2023-02-18T04:49:35;101029.25;;;5.24;100.00
14612;BME280;7392;52.078;11.650;2023-02-18T04:52:03;101022.28;;;5.26;100.00
14612;BME280;7392;52.078;11.650;2023-02-18T04:54:30;101031.09;;;5.28;100.00
14612;BME280;7392;52.078;11.650;2023-02-18T04:56:58;101024.97;;;5.29;100.00
14612;BME280;7392;52.078;11.650;2023-02-18T04:59:26;101022.41;;;5.32;100.00
14612;BME280;7392;52.078;11.650;2023-02-18T05:01:54;101022.44;;;5.34;100.00
14612;BME280;7392;52.078;11.650;2023-02-18T05:04:23;101019.84;;;5.35;100.00
14612;BME280;7392;52.078;11.650;2023-02-18T05:06:51;101027.81;;;5.37;100.00
14612;BME280;7392;52.078;11.650;2023-02-18T05:09:19;101028.72;;;5.39;100.00
14612;BME280;7392;52.078;11.650;2023-02-18T05:11:46;101026.13;;;5.40;100.00
14612;BME280;7392;52.078;11.650;2023-02-18T05:14:14;101013.84;;;5.41;100.00
14612;BME280;7392;52.078;11.650;2023-02-18T05:16:42;101018.25;;;5.42;100.00
14612;BME280;7392;52.078;11.650;2023-02-18T05:19:13;101008.63;;;5.44;100.00
14612;BME280;7392;52.078;11.650;2023-02-18T05:21:42;101006.94;;;5.46;100.00
14612;BME280;7392;52.078;11.650;2023-02-18T05:24:10;101004.31;;;5.48;100.00
14612;BME280;7392;52.078;11.650;2023-02-18T05:26:38;100999.16;;;5.52;100.00
14612;BME280;7392;52.078;11.650;2023-02-18T05:29:06;100999.22;;;5.54;100.00
14612;BME280;7392;52.078;11.650;2023-02-18T05:31:33;100994.84;;;5.56;100.00
14612;BME280;7392;52.078;11.650;2023-02-18T05:34:03;100996.66;;;5.58;100.00
14612;BME280;7392;52.078;11.650;2023-02-18T05:36:31;100983.47;;;5.58;100.00
14612;BME280;7392;52.078;11.650;2023-02-18T05:39:00;100982.66;;;5.61;100.00
14612;BME280;7392;52.078;11.650;2023-02-18T05:41:28;100977.44;;;5.62;100.00
14612;BME280;7392;52.078;11.650;2023-02-18T05:43:56;100976.59;;;5.65;100.00
14612;BME280;7392;52.078;11.650;2023-02-18T05:46:41;100965.22;;;5.66;100.00
14612;BME280;7392;52.078;11.650;2023-02-18T05:49:09;100972.28;;;5.69;100.00
14612;BME280;7392;52.078;11.650;2023-02-18T05:51:37;100970.56;;;5.69;100.00
14612;BME280;7392;52.078;11.650;2023-02-18T05:54:06;100960.84;;;5.68;100.00
14612;BME280;7392;52.078;11.650;2023-02-18T05:56:33;100966.16;;;5.70;100.00
14612;BME280;7392;52.078;11.650;2023-02-18T05:59:01;100958.25;;;5.70;100.00
14612;BME280;7392;52.078;11.650;2023-02-18T06:01:29;100958.25;;;5.70;100.00
14612;BME280;7392;52.078;11.650;2023-02-18T06:03:57;100948.56;;;5.69;100.00
14612;BME280;7392;52.078;11.650;2023-02-18T06:06:24;100958.25;;;5.70;100.00
14612;BME280;7392;52.078;11.650;2023-02-18T06:08:52;100949.47;;;5.69;100.00
14612;BME280;7392;52.078;11.650;2023-02-18T06:11:21;100947.72;;;5.70;100.00
14612;BME280;7392;52.078;11.650;2023-02-18T06:13:49;100945.97;;;5.70;100.00
14612;BME280;7392;52.078;11.650;2023-02-18T06:16:16;100944.19;;;5.69;100.00
14612;BME280;7392;52.078;11.650;2023-02-18T06:18:44;100944.19;;;5.69;100.00
14612;BME280;7392;52.078;11.650;2023-02-18T06:21:12;100942.44;;;5.70;100.00
14612;BME280;7392;52.078;11.650;2023-02-18T06:23:39;100942.41;;;5.68;100.00
14612;BME280;7392;52.078;11.650;2023-02-18T06:26:08;100947.69;;;5.68;100.00
14612;BME280;7392;52.078;11.650;2023-02-18T06:28:37;100940.66;;;5.67;100.00
14612;BME280;7392;52.078;11.650;2023-02-18T06:31:05;100943.28;;;5.67;100.00
14612;BME280;7392;52.078;11.650;2023-02-18T06:33:33;100942.34;;;5.65;100.00
14612;BME280;7392;52.078;11.650;2023-02-18T06:36:03;100939.69;;;5.65;100.00
14612;BME280;7392;52.078;11.650;2023-02-18T06:38:33;100936.19;;;5.65;100.00
14612;BME280;7392;52.078;11.650;2023-02-18T06:41:00;100918.63;;;5.65;100.00
14612;BME280;7392;52.078;11.650;2023-02-18T06:43:28;100906.34;;;5.66;100.00
14612;BME280;7392;52.078;11.650;2023-02-18T06:45:57;100902.78;;;5.63;100.00
14612;BME280;7392;52.078;11.650;2023-02-18T06:48:25;100898.38;;;5.62;100.00
14612;BME280;7392;52.078;11.650;2023-02-18T06:50:53;100893.13;;;5.64;100.00
14612;BME280;7392;52.078;11.650;2023-02-18T06:53:20;100886.09;;;5.63;100.00
14612;BME280;7392;52.078;11.650;2023-02-18T06:55:48;100890.50;;;5.64;100.00
14612;BME280;7392;52.078;11.650;2023-02-18T06:58:16;100883.47;;;5.65;100.00
14612;BME280;7392;52.078;11.650;2023-02-18T07:00:43;100879.97;;;5.64;100.00
14612;BME280;7392;52.078;11.650;2023-02-18T07:03:13;100870.31;;;5.65;100.00
14612;BME280;7392;52.078;11.650;2023-02-18T07:05:41;100863.25;;;5.63;100.00
14612;BME280;7392;52.078;11.650;2023-02-18T07:08:09;100866.78;;;5.64;100.00
14612;BME280;7392;52.078;11.650;2023-02-18T07:10:37;100863.25;;;5.63;100.00
14612;BME280;7392;52.078;11.650;2023-02-18T07:13:05;100860.59;;;5.63;100.00
14612;BME280;7392;52.078;11.650;2023-02-18T07:15:32;100859.75;;;5.65;100.00
14612;BME280;7392;52.078;11.650;2023-02-18T07:18:00;100852.69;;;5.63;100.00
14612;BME280;7392;52.078;11.650;2023-02-18T07:20:29;100847.44;;;5.63;100.00
14612;BME280;7392;52.078;11.650;2023-02-18T07:22:57;100840.44;;;5.64;100.00
14612;BME280;7392;52.078;11.650;2023-02-18T07:25:25;100841.31;;;5.65;100.00
14612;BME280;7392;52.078;11.650;2023-02-18T07:27:53;100829.94;;;5.66;100.00
14612;BME280;7392;52.078;11.650;2023-02-18T07:30:21;100829.06;;;5.67;100.00
14612;BME280;7392;52.078;11.650;2023-02-18T07:32:48;100829.06;;;5.67;100.00
14612;BME280;7392;52.078;11.650;2023-02-18T07:35:17;100826.41;;;5.67;100.00
14612;BME280;7392;52.078;11.650;2023-02-18T07:37:46;100815.91;;;5.68;100.00
14612;BME280;7392;52.078;11.650;2023-02-18T07:40:16;100810.63;;;5.68;100.00
14612;BME280;7392;52.078;11.650;2023-02-18T07:42:44;100810.66;;;5.70;100.00
14612;BME280;7392;52.078;11.650;2023-02-18T07:45:12;100811.56;;;5.72;100.00
14612;BME280;7392;52.078;11.650;2023-02-18T07:47:40;100792.28;;;5.73;100.00
14612;BME280;7392;52.078;11.650;2023-02-18T07:50:09;100786.13;;;5.74;100.00
14612;BME280;7392;52.078;11.650;2023-02-18T07:52:37;100782.69;;;5.76;100.00
14612;BME280;7392;52.078;11.650;2023-02-18T07:55:07;100777.44;;;5.78;100.00
14612;BME280;7392;52.078;11.650;2023-02-18T07:57:35;100771.34;;;5.82;100.00
14612;BME280;7392;52.078;11.650;2023-02-18T08:00:22;100772.25;;;5.83;100.00
14612;BME280;7392;52.078;11.650;2023-02-18T08:02:50;100770.53;;;5.85;100.00
14612;BME280;7392;52.078;11.650;2023-02-18T08:05:18;100775.84;;;5.88;100.00
14612;BME280;7392;52.078;11.650;2023-02-18T08:07:46;100760.06;;;5.91;100.00
14612;BME280;7392;52.078;11.650;2023-02-18T08:10:15;100755.75;;;5.94;100.00
14612;BME280;7392;52.078;11.650;2023-02-18T08:12:43;100747.91;;;5.97;100.00
14612;BME280;7392;52.078;11.650;2023-02-18T08:15:11;100747.97;;;6.01;100.00
14612;BME280;7392;52.078;11.650;2023-02-18T08:17:39;100748.88;;;6.03;100.00
14612;BME280;7392;52.078;11.650;2023-02-18T08:20:07;100741.03;;;6.06;100.00
14612;BME280;7392;52.078;11.650;2023-02-18T08:22:36;100725.28;;;6.10;100.00
14612;BME280;7392;52.078;11.650;2023-02-18T08:25:04;100723.59;;;6.14;100.00
14612;BME280;7392;52.078;11.650;2023-02-18T08:27:33;100717.47;;;6.15;100.00
14612;BME280;7392;52.078;11.650;2023-02-18T08:30:01;100718.34;;;6.17;100.00
14612;BME280;7392;52.078;11.650;2023-02-18T08:32:29;100703.44;;;6.19;100.00
14612;BME280;7392;52.078;11.650;2023-02-18T08:34:56;100707.84;;;6.22;100.00
14612;BME280;7392;52.078;11.650;2023-02-18T08:37:24;100698.25;;;6.24;100.00
14612;BME280;7392;52.078;11.650;2023-02-18T08:39:52;100707.06;;;6.26;100.00
14612;BME280;7392;52.078;11.650;2023-02-18T08:42:20;100684.22;;;6.28;100.00
14612;BME280;7392;52.078;11.650;2023-02-18T08:44:49;100696.59;;;6.30;100.00
14612;BME280;7392;52.078;11.650;2023-02-18T08:47:17;100682.47;;;6.30;100.00
14612;BME280;7392;52.078;11.650;2023-02-18T08:50:05;100679.00;;;6.32;100.00
14612;BME280;7392;52.078;11.650;2023-02-18T08:52:32;100674.66;;;6.36;100.00
14612;BME280;7392;52.078;11.650;2023-02-18T08:55:00;100672.94;;;6.38;100.00
14612;BME280;7392;52.078;11.650;2023-02-18T08:57:28;100665.03;;;6.40;100.00
14612;BME280;7392;52.078;11.650;2023-02-18T08:59:57;100667.69;;;6.41;100.00
14612;BME280;7392;52.078;11.650;2023-02-18T09:02:24;100668.59;;;6.43;100.00
14612;BME280;7392;52.078;11.650;2023-02-18T09:04:54;100659.00;;;6.48;100.00
14612;BME280;7392;52.078;11.650;2023-02-18T09:07:22;100644.97;;;6.51;100.00
14612;BME280;7392;52.078;11.650;2023-02-18T09:09:49;100651.16;;;6.53;100.00
14612;BME280;7392;52.078;11.650;2023-02-18T09:12:17;100651.16;;;6.54;100.00
14612;BME280;7392;52.078;11.650;2023-02-18T09:14:46;100638.91;;;6.58;100.00
14612;BME280;7392;52.078;11.650;2023-02-18T09:17:15;100635.41;;;6.61;100.00
14612;BME280;7392;52.078;11.650;2023-02-18T09:19:43;100628.41;;;6.63;100.00
14612;BME280;7392;52.078;11.650;2023-02-18T09:22:11;100619.59;;;6.64;100.00
14612;BME280;7392;52.078;11.650;2023-02-18T09:24:39;100611.72;;;6.65;100.00
14612;BME280;7392;52.078;11.650;2023-02-18T09:27:07;100603.84;;;6.68;100.00
14612;BME280;7392;52.078;11.650;2023-02-18T09:29:38;100598.63;;;6.73;100.00
14612;BME280;7392;52.078;11.650;2023-02-18T09:32:07;100588.97;;;6.77;100.00
14612;BME280;7392;52.078;11.650;2023-02-18T09:34:37;100585.47;;;6.81;100.00
14612;BME280;7392;52.078;11.650;2023-02-18T09:37:05;100594.34;;;6.86;100.00
14612;BME280;7392;52.078;11.650;2023-02-18T09:39:33;100592.63;;;6.91;100.00
14612;BME280;7392;52.078;11.650;2023-02-18T09:42:02;100586.50;;;6.95;100.00
14612;BME280;7392;52.078;11.650;2023-02-18T09:44:33;100587.44;;;7.00;100.00
14612;BME280;7392;52.078;11.650;2023-02-18T09:47:04;100582.19;;;7.05;100.00
14612;BME280;7392;52.078;11.650;2023-02-18T09:49:34;100572.59;;;7.11;100.00
14612;BME280;7392;52.078;11.650;2023-02-18T09:52:10;100563.81;;;7.17;100.00
14612;BME280;7392;52.078;11.650;2023-02-18T09:54:39;100558.63;;;7.25;100.00
14612;BME280;7392;52.078;11.650;2023-02-18T09:57:16;100554.25;;;7.30;100.00
14612;BME280;7392;52.078;11.650;2023-02-18T09:59:52;100559.59;;;7.36;100.00
14612;BME280;7392;52.078;11.650;2023-02-18T10:02:23;100543.75;;;7.39;100.00
14612;BME280;7392;52.078;11.650;2023-02-18T10:04:51;100541.16;;;7.44;100.00
14612;BME280;7392;52.078;11.650;2023-02-18T10:07:25;100520.06;;;7.50;100.00
14612;BME280;7392;52.078;11.650;2023-02-18T10:09:56;100517.44;;;7.58;100.00
14612;BME280;7392;52.078;11.650;2023-02-18T10:12:26;100516.59;;;7.63;100.00
14612;BME280;7392;52.078;11.650;2023-02-18T10:14:56;100521.06;;;7.71;100.00
14612;BME280;7392;52.078;11.650;2023-02-18T10:17:27;100515.81;;;7.78;100.00
14612;BME280;7392;52.078;11.650;2023-02-18T10:19:56;100507.03;;;7.84;100.00
14612;BME280;7392;52.078;11.650;2023-02-18T10:22:28;100514.16;;;7.94;100.00
14612;BME280;7392;52.078;11.650;2023-02-18T10:24:57;100507.09;;;8.01;100.00
14612;BME280;7392;52.078;11.650;2023-02-18T10:27:28;100493.06;;;8.10;100.00
14612;BME280;7392;52.078;11.650;2023-02-18T10:30:01;100499.25;;;8.18;100.00
14612;BME280;7392;52.078;11.650;2023-02-18T10:32:35;100494.88;;;8.28;100.00
14612;BME280;7392;52.078;11.650;2023-02-18T10:35:14;100486.97;;;8.38;100.00
14612;BME280;7392;52.078;11.650;2023-02-18T10:37:53;100474.69;;;8.51;100.00
14612;BME280;7392;52.078;11.650;2023-02-18T10:40:28;100477.38;;;8.68;100.00
14612;BME280;7392;52.078;11.650;2023-02-18T10:43:07;100462.38;;;8.86;100.00
14612;BME280;7392;52.078;11.650;2023-02-18T10:45:45;100467.66;;;9.04;100.00
14612;BME280;7392;52.078;11.650;2023-02-18T10:48:31;100458.81;;;9.25;100.00
14612;BME280;7392;52.078;11.650;2023-02-18T10:51:12;100450.84;;;9.47;100.00
14612;BME280;7392;52.078;11.650;2023-02-18T10:53:44;100455.19;;;9.65;100.00
14612;BME280;7392;52.078;11.650;2023-02-18T10:56:32;100455.13;;;9.83;100.00
14612;BME280;7392;52.078;11.650;2023-02-18T10:59:08;100461.25;;;10.01;100.00
14612;BME280;7392;52.078;11.650;2023-02-18T11:01:36;100459.44;;;10.14;100.00
14612;BME280;7392;52.078;11.650;2023-02-18T11:04:09;100453.19;;;10.22;100.00
14612;BME280;7392;52.078;11.650;2023-02-18T11:06:40;100455.81;;;10.33;100.00
14612;BME280;7392;52.078;11.650;2023-02-18T11:09:29;100447.81;;;10.39;100.00
14612;BME280;7392;52.078;11.650;2023-02-18T11:12:01;100454.88;;;10.45;100.00
14612;BME280;7392;52.078;11.650;2023-02-18T11:14:39;100445.09;;;10.52;100.00
14612;BME280;7392;52.078;11.650;2023-02-18T11:17:15;100445.06;;;10.55;100.00
14612;BME280;7392;52.078;11.650;2023-02-18T11:19:50;100450.38;;;10.58;100.00
14612;BME280;7392;52.078;11.650;2023-02-18T11:22:21;100417.59;;;10.59;100.00
14612;BME280;7392;52.078;11.650;2023-02-18T11:24:55;100420.22;;;10.60;100.00
14612;BME280;7392;52.078;11.650;2023-02-18T11:27:27;100412.25;;;10.62;100.00
14612;BME280;7392;52.078;11.650;2023-02-18T11:29:59;100408.66;;;10.69;100.00
14612;BME280;7392;52.078;11.650;2023-02-18T11:32:30;100393.50;;;10.85;100.00
14612;BME280;7392;52.078;11.650;2023-02-18T11:35:01;100419.91;;;11.02;100.00
14612;BME280;7392;52.078;11.650;2023-02-18T11:37:32;100413.66;;;11.08;100.00
14612;BME280;7392;52.078;11.650;2023-02-18T11:40:02;100393.16;;;11.20;100.00
14612;BME280;7392;52.078;11.650;2023-02-18T11:42:30;100392.19;;;11.29;100.00
14612;BME280;7392;52.078;11.650;2023-02-18T11:44:59;100395.63;;;11.37;100.00
14612;BME280;7392;52.078;11.650;2023-02-18T11:47:33;100395.66;;;11.36;100.00
14612;BME280;7392;52.078;11.650;2023-02-18T11:50:13;100383.25;;;11.33;100.00
14612;BME280;7392;52.078;11.650;2023-02-18T11:52:43;100383.28;;;11.32;100.00
14612;BME280;7392;52.078;11.650;2023-02-18T11:55:16;100378.91;;;11.29;100.00
14612;BME280;7392;52.078;11.650;2023-02-18T11:57:48;100382.47;;;11.23;100.00
14612;BME280;7392;52.078;11.650;2023-02-18T12:00:22;100386.91;;;11.25;100.00
14612;BME280;7392;52.078;11.650;2023-02-18T12:02:52;100394.91;;;11.21;100.00
14612;BME280;7392;52.078;11.650;2023-02-18T12:05:24;100390.53;;;11.17;100.00
14612;BME280;7392;52.078;11.650;2023-02-18T12:07:57;100378.97;;;11.20;100.00
14612;BME280;7392;52.078;11.650;2023-02-18T12:10:30;100380.81;;;11.13;100.00
14612;BME280;7392;52.078;11.650;2023-02-18T12:13:02;100389.72;;;11.11;100.00
14612;BME280;7392;52.078;11.650;2023-02-18T12:15:45;100376.41;;;11.11;100.00
14612;BME280;7392;52.078;11.650;2023-02-18T12:18:24;100395.03;;;11.08;100.00
14612;BME280;7392;52.078;11.650;2023-02-18T12:21:11;100380.00;;;11.05;100.00
14612;BME280;7392;52.078;11.650;2023-02-18T12:23:50;100348.09;;;11.05;100.00
14612;BME280;7392;52.078;11.650;2023-02-18T12:26:27;100394.09;;;11.12;100.00
14612;BME280;7392;52.078;11.650;2023-02-18T12:29:17;100378.22;;;11.09;100.00
14612;BME280;7392;52.078;11.650;2023-02-18T12:31:58;100395.94;;;11.05;100.00
14612;BME280;7392;52.078;11.650;2023-02-18T12:34:38;100380.94;;;11.02;100.00
14612;BME280;7392;52.078;11.650;2023-02-18T12:37:48;100380.06;;;11.02;100.00
14612;BME280;7392;52.078;11.650;2023-02-18T12:40:49;100369.44;;;11.00;100.00
14612;BME280;7392;52.078;11.650;2023-02-18T12:43:29;100377.44;;;10.96;100.00
14612;BME280;7392;52.078;11.650;2023-02-18T12:46:20;100389.84;;;10.95;100.00
14612;BME280;7392;52.078;11.650;2023-02-18T12:48:58;100373.84;;;11.00;100.00
14612;BME280;7392;52.078;11.650;2023-02-18T12:51:36;100369.44;;;10.99;100.00
14612;BME280;7392;52.078;11.650;2023-02-18T12:54:20;100354.31;;;11.06;100.00
14612;BME280;7392;52.078;11.650;2023-02-18T12:56:58;100381.75;;;11.09;100.00
14612;BME280;7392;52.078;11.650;2023-02-18T13:00:02;100374.59;;;11.14;100.00
14612;BME280;7392;52.078;11.650;2023-02-18T13:02:51;100417.81;;;11.36;100.00
14612;BME280;7392;52.078;11.650;2023-02-18T13:05:29;100378.69;;;11.46;100.00
14612;BME280;7392;52.078;11.650;2023-02-18T13:08:08;100394.69;;;11.41;100.00
14612;BME280;7392;52.078;11.650;2023-02-18T13:10:53;100399.16;;;11.41;99.58
14612;BME280;7392;52.078;11.650;2023-02-18T13:13:24;100379.66;;;11.39;100.00
14612;BME280;7392;52.078;11.650;2023-02-18T13:15:57;100393.06;;;11.30;100.00
14612;BME280;7392;52.078;11.650;2023-02-18T13:18:28;100390.53;;;11.19;100.00